sensor_id;sensor_type;location;lat;lon;timestamp;pressure;altitude;pressure_sealevel;temperature;humidity
53262;BME280;39658;51.090;-1.786;2022-10-31T00:01:38;100995.41;;;11.19;100.00
53262;BME280;39658;51.090;-1.786;2022-10-31T00:04:05;100994.03;;;11.15;100.00
53262;BME280;39658;51.090;-1.786;2022-10-31T00:06:32;100995.06;;;11.32;100.00
53262;BME280;39658;51.090;-1.786;2022-10-31T00:09:02;100990.94;;;11.37;100.00
53262;BME280;39658;51.090;-1.786;2022-10-31T00:11:30;100990.59;;;11.58;100.00
53262;BME280;39658;51.090;-1.786;2022-10-31T00:13:57;101000.97;;;11.79;100.00
53262;BME280;39658;51.090;-1.786;2022-10-31T00:16:25;100997.31;;;11.80;100.00
53262;BME280;39658;51.090;-1.786;2022-10-31T00:18:53;100994.88;;;11.86;100.00
53262;BME280;39658;51.090;-1.786;2022-10-31T00:21:21;100989.22;;;11.89;100.00
53262;BME280;39658;51.090;-1.786;2022-10-31T00:23:48;100990.94;;;11.99;100.00
53262;BME280;39658;51.090;-1.786;2022-10-31T00:26:16;100989.81;;;12.01;100.00
53262;BME280;39658;51.090;-1.786;2022-10-31T00:28:43;100988.38;;;12.15;100.00
53262;BME280;39658;51.090;-1.786;2022-10-31T00:31:12;100979.22;;;12.17;100.00
53262;BME280;39658;51.090;-1.786;2022-10-31T00:33:39;100968.25;;;12.20;100.00
53262;BME280;39658;51.090;-1.786;2022-10-31T00:36:09;100965.59;;;12.29;100.00
53262;BME280;39658;51.090;-1.786;2022-10-31T00:38:37;100957.84;;;12.43;100.00
53262;BME280;39658;51.090;-1.786;2022-10-31T00:41:04;100960.53;;;12.43;100.00
53262;BME280;39658;51.090;-1.786;2022-10-31T00:43:32;100953.97;;;12.38;100.00
53262;BME280;39658;51.090;-1.786;2022-10-31T00:45:59;100960.19;;;12.46;100.00
53262;BME280;39658;51.090;-1.786;2022-10-31T00:48:25;100952.19;;;12.46;100.00
53262;BME280;39658;51.090;-1.786;2022-10-31T00:50:52;100956.19;;;12.42;100.00
53262;BME280;39658;51.090;-1.786;2022-10-31T00:53:19;100963.03;;;12.45;100.00
53262;BME280;39658;51.090;-1.786;2022-10-31T00:55:46;100951.47;;;12.36;100.00
53262;BME280;39658;51.090;-1.786;2022-10-31T00:58:12;100950.47;;;12.37;100.00
53262;BME280;39658;51.090;-1.786;2022-10-31T01:00:40;100958.84;;;12.42;100.00
53262;BME280;39658;51.090;-1.786;2022-10-31T01:03:08;100964.69;;;12.46;100.00
53262;BME280;39658;51.090;-1.786;2022-10-31T01:05:34;100960.38;;;12.53;100.00
53262;BME280;39658;51.090;-1.786;2022-10-31T01:08:01;100960.56;;;12.51;100.00
53262;BME280;39658;51.090;-1.786;2022-10-31T01:10:28;100953.22;;;12.53;100.00
53262;BME280;39658;51.090;-1.786;2022-10-31T01:12:55;100954.06;;;12.62;100.00
53262;BME280;39658;51.090;-1.786;2022-10-31T01:15:22;100959.09;;;12.65;100.00
53262;BME280;39658;51.090;-1.786;2022-10-31T01:17:51;100957.41;;;12.64;100.00
53262;BME280;39658;51.090;-1.786;2022-10-31T01:20:17;100950.41;;;12.71;100.00
53262;BME280;39658;51.090;-1.786;2022-10-31T01:22:44;100955.09;;;12.69;100.00
53262;BME280;39658;51.090;-1.786;2022-10-31T01:25:11;100951.91;;;12.66;100.00
53262;BME280;39658;51.090;-1.786;2022-10-31T01:27:38;100959.44;;;12.70;100.00
53262;BME280;39658;51.090;-1.786;2022-10-31T01:30:06;100951.72;;;12.59;100.00
53262;BME280;39658;51.090;-1.786;2022-10-31T01:32:32;100953.56;;;12.59;100.00
53262;BME280;39658;51.090;-1.786;2022-10-31T01:35:00;100960.19;;;12.46;100.00
53262;BME280;39658;51.090;-1.786;2022-10-31T01:37:27;100960.13;;;12.38;100.00
53262;BME280;39658;51.090;-1.786;2022-10-31T01:39:54;100960.78;;;12.32;100.00
53262;BME280;39658;51.090;-1.786;2022-10-31T01:42:22;100955.97;;;12.36;100.00
53262;BME280;39658;51.090;-1.786;2022-10-31T01:44:55;100963.59;;;12.22;100.00
53262;BME280;39658;51.090;-1.786;2022-10-31T01:47:41;100970.03;;;12.12;100.00
53262;BME280;39658;51.090;-1.786;2022-10-31T01:50:22;100966.56;;;12.19;100.00
53262;BME280;39658;51.090;-1.786;2022-10-31T01:52:52;100958.25;;;12.22;100.00
53262;BME280;39658;51.090;-1.786;2022-10-31T01:55:23;100954.59;;;12.32;100.00
53262;BME280;39658;51.090;-1.786;2022-10-31T01:57:54;100953.75;;;12.23;100.00
53262;BME280;39658;51.090;-1.786;2022-10-31T02:00:22;100951.44;;;12.28;100.00
53262;BME280;39658;51.090;-1.786;2022-10-31T02:02:49;100946.25;;;12.27;100.00
53262;BME280;39658;51.090;-1.786;2022-10-31T02:05:20;100941.44;;;12.30;100.00
53262;BME280;39658;51.090;-1.786;2022-10-31T02:07:55;100940.91;;;12.27;100.00
53262;BME280;39658;51.090;-1.786;2022-10-31T02:10:23;100946.13;;;12.36;100.00
53262;BME280;39658;51.090;-1.786;2022-10-31T02:12:52;100944.44;;;12.35;100.00
53262;BME280;39658;51.090;-1.786;2022-10-31T02:15:20;100944.63;;;12.34;100.00
53262;BME280;39658;51.090;-1.786;2022-10-31T02:17:47;100934.25;;;12.31;100.00
53262;BME280;39658;51.090;-1.786;2022-10-31T02:20:17;100943.94;;;12.32;100.00
53262;BME280;39658;51.090;-1.786;2022-10-31T02:23:10;100940.56;;;12.21;100.00
53262;BME280;39658;51.090;-1.786;2022-10-31T02:26:03;100944.22;;;12.20;100.00
53262;BME280;39658;51.090;-1.786;2022-10-31T02:28:56;100950.03;;;12.16;100.00
53262;BME280;39658;51.090;-1.786;2022-10-31T02:31:34;100953.16;;;12.03;100.00
53262;BME280;39658;51.090;-1.786;2022-10-31T02:34:13;100955.34;;;12.08;100.00
53262;BME280;39658;51.090;-1.786;2022-10-31T02:36:51;100956.66;;;12.04;100.00
53262;BME280;39658;51.090;-1.786;2022-10-31T02:39:23;100954.34;;;12.09;100.00
53262;BME280;39658;51.090;-1.786;2022-10-31T02:42:00;100954.34;;;12.09;100.00
53262;BME280;39658;51.090;-1.786;2022-10-31T02:44:31;100952.50;;;12.09;100.00
53262;BME280;39658;51.090;-1.786;2022-10-31T02:47:06;100945.16;;;12.03;100.00
53262;BME280;39658;51.090;-1.786;2022-10-31T02:49:38;100959.72;;;12.17;100.00
53262;BME280;39658;51.090;-1.786;2022-10-31T02:52:16;100949.00;;;12.09;100.00
53262;BME280;39658;51.090;-1.786;2022-10-31T02:54:44;100948.69;;;12.12;100.00
53262;BME280;39658;51.090;-1.786;2022-10-31T02:57:13;100947.91;;;11.93;100.00
53262;BME280;39658;51.090;-1.786;2022-10-31T02:59:46;100943.31;;;11.78;100.00
53262;BME280;39658;51.090;-1.786;2022-10-31T03:02:26;100939.72;;;11.69;100.00
53262;BME280;39658;51.090;-1.786;2022-10-31T03:07:59;100936.03;;;11.44;100.00
53262;BME280;39658;51.090;-1.786;2022-10-31T03:10:32;100924.78;;;11.33;100.00
53262;BME280;39658;51.090;-1.786;2022-10-31T03:13:08;100909.97;;;11.30;100.00
53262;BME280;39658;51.090;-1.786;2022-10-31T03:15:38;100915.19;;;11.40;100.00
53262;BME280;39658;51.090;-1.786;2022-10-31T03:18:10;100910.22;;;11.45;100.00
53262;BME280;39658;51.090;-1.786;2022-10-31T03:20:41;100907.75;;;11.69;100.00
53262;BME280;39658;51.090;-1.786;2022-10-31T03:23:14;100897.91;;;11.70;100.00
53262;BME280;39658;51.090;-1.786;2022-10-31T03:25:43;100893.09;;;11.73;100.00
53262;BME280;39658;51.090;-1.786;2022-10-31T03:28:11;100902.22;;;11.88;100.00
53262;BME280;39658;51.090;-1.786;2022-10-31T03:30:41;100887.31;;;12.04;100.00
53262;BME280;39658;51.090;-1.786;2022-10-31T03:33:13;100880.91;;;11.97;100.00
53262;BME280;39658;51.090;-1.786;2022-10-31T03:35:44;100886.47;;;12.03;100.00
53262;BME280;39658;51.090;-1.786;2022-10-31T03:38:11;100891.69;;;12.13;100.00
53262;BME280;39658;51.090;-1.786;2022-10-31T03:40:41;100893.84;;;12.09;100.00
53262;BME280;39658;51.090;-1.786;2022-10-31T03:43:12;100891.69;;;12.21;100.00
53262;BME280;39658;51.090;-1.786;2022-10-31T03:45:44;100890.53;;;12.23;100.00
53262;BME280;39658;51.090;-1.786;2022-10-31T03:48:13;100895.22;;;12.21;100.00
53262;BME280;39658;51.090;-1.786;2022-10-31T03:50:44;100889.91;;;12.30;100.00
53262;BME280;39658;51.090;-1.786;2022-10-31T03:53:14;100892.56;;;12.30;100.00
53262;BME280;39658;51.090;-1.786;2022-10-31T03:55:48;100887.22;;;12.30;100.00
53262;BME280;39658;51.090;-1.786;2022-10-31T03:58:20;100889.41;;;12.34;100.00
53262;BME280;39658;51.090;-1.786;2022-10-31T04:00:51;100889.97;;;12.46;100.00
53262;BME280;39658;51.090;-1.786;2022-10-31T04:03:24;100890.97;;;12.45;100.00
53262;BME280;39658;51.090;-1.786;2022-10-31T04:05:54;100884.97;;;12.43;100.00
53262;BME280;39658;51.090;-1.786;2022-10-31T04:08:24;100879.09;;;12.39;100.00
53262;BME280;39658;51.090;-1.786;2022-10-31T04:10:54;100888.56;;;12.34;100.00
53262;BME280;39658;51.090;-1.786;2022-10-31T04:13:24;100889.03;;;12.21;100.00
53262;BME280;39658;51.090;-1.786;2022-10-31T04:15:53;100879.72;;;12.25;100.00
53262;BME280;39658;51.090;-1.786;2022-10-31T04:18:23;100879.72;;;12.25;100.00
53262;BME280;39658;51.090;-1.786;2022-10-31T04:20:59;100871.16;;;12.13;100.00
53262;BME280;39658;51.090;-1.786;2022-10-31T04:23:27;100877.31;;;12.06;100.00
53262;BME280;39658;51.090;-1.786;2022-10-31T04:25:54;100879.88;;;11.89;100.00
53262;BME280;39658;51.090;-1.786;2022-10-31T04:28:21;100873.88;;;11.87;100.00
53262;BME280;39658;51.090;-1.786;2022-10-31T04:30:48;100873.75;;;11.97;100.00
53262;BME280;39658;51.090;-1.786;2022-10-31T04:33:15;100874.72;;;11.88;100.00
53262;BME280;39658;51.090;-1.786;2022-10-31T04:35:43;100866.56;;;11.89;100.00
53262;BME280;39658;51.090;-1.786;2022-10-31T04:38:09;100864.53;;;11.83;100.00
53262;BME280;39658;51.090;-1.786;2022-10-31T04:40:36;100862.34;;;11.79;100.00
53262;BME280;39658;51.090;-1.786;2022-10-31T04:43:03;100874.00;;;11.78;100.00
53262;BME280;39658;51.090;-1.786;2022-10-31T04:45:30;100867.50;;;11.80;100.00
53262;BME280;39658;51.090;-1.786;2022-10-31T04:47:56;100872.88;;;11.63;100.00
53262;BME280;39658;51.090;-1.786;2022-10-31T04:50:23;100863.25;;;11.70;100.00
53262;BME280;39658;51.090;-1.786;2022-10-31T04:52:51;100867.84;;;11.59;100.00
53262;BME280;39658;51.090;-1.786;2022-10-31T04:55:18;100862.59;;;11.68;100.00
53262;BME280;39658;51.090;-1.786;2022-10-31T04:57:46;100865.56;;;11.65;100.00
53262;BME280;39658;51.090;-1.786;2022-10-31T05:00:16;100864.25;;;11.69;100.00
53262;BME280;39658;51.090;-1.786;2022-10-31T05:02:43;100858.56;;;11.64;100.00
53262;BME280;39658;51.090;-1.786;2022-10-31T05:05:11;100864.75;;;11.64;100.00
53262;BME280;39658;51.090;-1.786;2022-10-31T05:07:39;100860.91;;;11.67;100.00
53262;BME280;39658;51.090;-1.786;2022-10-31T05:10:09;100855.91;;;11.64;100.00
53262;BME280;39658;51.090;-1.786;2022-10-31T05:12:36;100862.81;;;11.56;100.00
53262;BME280;39658;51.090;-1.786;2022-10-31T05:15:04;100858.03;;;11.60;100.00
53262;BME280;39658;51.090;-1.786;2022-10-31T05:17:31;100853.53;;;11.60;100.00
53262;BME280;39658;51.090;-1.786;2022-10-31T05:19:58;100848.97;;;11.53;100.00
53262;BME280;39658;51.090;-1.786;2022-10-31T05:22:25;100853.47;;;11.52;100.00
53262;BME280;39658;51.090;-1.786;2022-10-31T05:24:52;100848.81;;;11.54;100.00
53262;BME280;39658;51.090;-1.786;2022-10-31T05:27:20;100854.13;;;11.46;100.00
53262;BME280;39658;51.090;-1.786;2022-10-31T05:29:47;100853.03;;;11.31;100.00
53262;BME280;39658;51.090;-1.786;2022-10-31T05:32:13;100846.84;;;11.30;100.00
53262;BME280;39658;51.090;-1.786;2022-10-31T05:34:40;100847.75;;;11.39;100.00
53262;BME280;39658;51.090;-1.786;2022-10-31T05:37:07;100850.09;;;11.42;100.00
53262;BME280;39658;51.090;-1.786;2022-10-31T05:39:34;100849.09;;;11.43;100.00
53262;BME280;39658;51.090;-1.786;2022-10-31T05:42:00;100842.63;;;11.46;100.00
53262;BME280;39658;51.090;-1.786;2022-10-31T05:44:29;100845.22;;;11.38;100.00
53262;BME280;39658;51.090;-1.786;2022-10-31T05:46:55;100840.69;;;11.30;100.00
53262;BME280;39658;51.090;-1.786;2022-10-31T05:49:22;100832.38;;;11.33;100.00
53262;BME280;39658;51.090;-1.786;2022-10-31T05:51:49;100835.06;;;11.33;100.00
53262;BME280;39658;51.090;-1.786;2022-10-31T05:54:16;100839.75;;;11.39;100.00
53262;BME280;39658;51.090;-1.786;2022-10-31T05:56:42;100836.13;;;11.48;100.00
53262;BME280;39658;51.090;-1.786;2022-10-31T05:59:09;100828.69;;;11.60;100.00
53262;BME280;39658;51.090;-1.786;2022-10-31T06:01:37;100830.63;;;11.76;100.00
53262;BME280;39658;51.090;-1.786;2022-10-31T06:04:04;100817.84;;;11.79;100.00
53262;BME280;39658;51.090;-1.786;2022-10-31T06:06:33;100826.19;;;11.84;100.00
53262;BME280;39658;51.090;-1.786;2022-10-31T06:09:00;100823.38;;;11.86;100.00
53262;BME280;39658;51.090;-1.786;2022-10-31T06:11:27;100820.69;;;11.78;100.00
53262;BME280;39658;51.090;-1.786;2022-10-31T06:13:53;100814.94;;;11.65;100.00
53262;BME280;39658;51.090;-1.786;2022-10-31T06:16:20;100822.50;;;11.51;100.00
53262;BME280;39658;51.090;-1.786;2022-10-31T06:18:48;100810.84;;;11.52;100.00
53262;BME280;39658;51.090;-1.786;2022-10-31T06:21:15;100805.88;;;11.57;100.00
53262;BME280;39658;51.090;-1.786;2022-10-31T06:23:42;100808.00;;;11.54;100.00
53262;BME280;39658;51.090;-1.786;2022-10-31T06:26:08;100800.16;;;11.44;100.00
53262;BME280;39658;51.090;-1.786;2022-10-31T06:28:35;100800.81;;;11.46;100.00
53262;BME280;39658;51.090;-1.786;2022-10-31T06:31:02;100804.00;;;11.50;100.00
53262;BME280;39658;51.090;-1.786;2022-10-31T06:33:29;100801.28;;;11.42;100.00
53262;BME280;39658;51.090;-1.786;2022-10-31T06:35:57;100800.56;;;11.32;100.00
53262;BME280;39658;51.090;-1.786;2022-10-31T06:38:25;100795.19;;;11.23;100.00
53262;BME280;39658;51.090;-1.786;2022-10-31T06:40:52;100801.41;;;11.06;100.00
53262;BME280;39658;51.090;-1.786;2022-10-31T06:43:19;100796.69;;;11.00;100.00
53262;BME280;39658;51.090;-1.786;2022-10-31T06:45:46;100790.69;;;10.80;100.00
53262;BME280;39658;51.090;-1.786;2022-10-31T06:48:13;100788.13;;;10.71;100.00
53262;BME280;39658;51.090;-1.786;2022-10-31T06:50:40;100790.63;;;10.72;100.00
53262;BME280;39658;51.090;-1.786;2022-10-31T06:53:09;100801.97;;;10.74;100.00
53262;BME280;39658;51.090;-1.786;2022-10-31T06:55:35;100799.31;;;10.74;100.00
53262;BME280;39658;51.090;-1.786;2022-10-31T06:58:02;100799.16;;;10.76;100.00
53262;BME280;39658;51.090;-1.786;2022-10-31T07:00:30;100794.59;;;10.68;100.00
53262;BME280;39658;51.090;-1.786;2022-10-31T07:02:58;100790.09;;;10.68;100.00
53262;BME280;39658;51.090;-1.786;2022-10-31T07:05:25;100798.63;;;10.72;100.00
53262;BME280;39658;51.090;-1.786;2022-10-31T07:07:53;100796.72;;;10.82;100.00
53262;BME280;39658;51.090;-1.786;2022-10-31T07:10:23;100798.69;;;10.98;100.00
53262;BME280;39658;51.090;-1.786;2022-10-31T07:12:54;100792.16;;;11.18;100.00
53262;BME280;39658;51.090;-1.786;2022-10-31T07:15:21;100800.78;;;11.38;100.00
53262;BME280;39658;51.090;-1.786;2022-10-31T07:17:48;100798.78;;;11.40;100.00
53262;BME280;39658;51.090;-1.786;2022-10-31T07:20:15;100805.16;;;11.47;100.00
53262;BME280;39658;51.090;-1.786;2022-10-31T07:22:42;100807.84;;;11.55;100.00
53262;BME280;39658;51.090;-1.786;2022-10-31T07:25:09;100808.91;;;11.63;100.00
53262;BME280;39658;51.090;-1.786;2022-10-31T07:27:38;100804.81;;;11.76;100.00
53262;BME280;39658;51.090;-1.786;2022-10-31T07:30:06;100812.53;;;11.87;100.00
53262;BME280;39658;51.090;-1.786;2022-10-31T07:32:40;100799.81;;;12.07;100.00
53262;BME280;39658;51.090;-1.786;2022-10-31T07:35:07;100795.66;;;12.29;100.00
53262;BME280;39658;51.090;-1.786;2022-10-31T07:37:34;100798.03;;;12.40;100.00
53262;BME280;39658;51.090;-1.786;2022-10-31T07:40:02;100799.22;;;12.54;100.00
53262;BME280;39658;51.090;-1.786;2022-10-31T07:42:29;100806.56;;;12.68;100.00
53262;BME280;39658;51.090;-1.786;2022-10-31T07:44:57;100804.91;;;12.75;100.00
53262;BME280;39658;51.090;-1.786;2022-10-31T07:47:23;100802.06;;;12.77;100.00
53262;BME280;39658;51.090;-1.786;2022-10-31T07:49:50;100804.41;;;13.04;100.00
53262;BME280;39658;51.090;-1.786;2022-10-31T07:52:17;100798.34;;;13.51;100.00
53262;BME280;39658;51.090;-1.786;2022-10-31T07:54:44;100799.16;;;13.99;100.00
53262;BME280;39658;51.090;-1.786;2022-10-31T07:57:10;100785.06;;;14.13;100.00
53262;BME280;39658;51.090;-1.786;2022-10-31T07:59:37;100791.28;;;14.05;100.00
53262;BME280;39658;51.090;-1.786;2022-10-31T08:02:07;100798.28;;;14.37;100.00
53262;BME280;39658;51.090;-1.786;2022-10-31T08:04:33;100787.97;;;15.32;100.00
53262;BME280;39658;51.090;-1.786;2022-10-31T08:07:00;100787.31;;;16.61;95.92
53262;BME280;39658;51.090;-1.786;2022-10-31T08:09:27;100780.22;;;16.75;90.77
53262;BME280;39658;51.090;-1.786;2022-10-31T08:11:54;100782.91;;;16.97;89.51
53262;BME280;39658;51.090;-1.786;2022-10-31T08:14:20;100779.78;;;15.78;93.07
53262;BME280;39658;51.090;-1.786;2022-10-31T08:16:47;100781.59;;;14.81;97.44
53262;BME280;39658;51.090;-1.786;2022-10-31T08:19:16;100790.03;;;14.70;98.80
53262;BME280;39658;51.090;-1.786;2022-10-31T08:21:42;100780.31;;;16.24;93.52
53262;BME280;39658;51.090;-1.786;2022-10-31T08:24:09;100775.09;;;17.02;87.43
53262;BME280;39658;51.090;-1.786;2022-10-31T08:26:36;100763.97;;;16.62;87.95
53262;BME280;39658;51.090;-1.786;2022-10-31T08:29:03;100771.66;;;16.65;86.33
53262;BME280;39658;51.090;-1.786;2022-10-31T08:31:30;100767.09;;;17.43;83.70
53262;BME280;39658;51.090;-1.786;2022-10-31T08:33:56;100763.00;;;17.53;81.07
53262;BME280;39658;51.090;-1.786;2022-10-31T08:36:25;100763.75;;;17.34;81.82
53262;BME280;39658;51.090;-1.786;2022-10-31T08:38:51;100752.88;;;17.21;82.48
53262;BME280;39658;51.090;-1.786;2022-10-31T08:41:18;100753.97;;;17.27;82.96
53262;BME280;39658;51.090;-1.786;2022-10-31T08:43:45;100753.97;;;18.02;79.52
53262;BME280;39658;51.090;-1.786;2022-10-31T08:46:13;100751.94;;;18.24;77.66
53262;BME280;39658;51.090;-1.786;2022-10-31T08:48:40;100753.66;;;18.52;76.28
53262;BME280;39658;51.090;-1.786;2022-10-31T08:51:08;100743.09;;;17.41;80.30
53262;BME280;39658;51.090;-1.786;2022-10-31T08:53:36;100745.56;;;17.71;79.68
53262;BME280;39658;51.090;-1.786;2022-10-31T08:56:03;100742.59;;;18.07;77.72
53262;BME280;39658;51.090;-1.786;2022-10-31T08:58:30;100740.97;;;18.39;76.63
53262;BME280;39658;51.090;-1.786;2022-10-31T09:00:59;100742.38;;;18.02;76.24
53262;BME280;39658;51.090;-1.786;2022-10-31T09:03:28;100746.53;;;17.63;77.66
53262;BME280;39658;51.090;-1.786;2022-10-31T09:05:57;100745.97;;;17.74;77.09
53262;BME280;39658;51.090;-1.786;2022-10-31T09:08:24;100735.34;;;16.97;80.36
53262;BME280;39658;51.090;-1.786;2022-10-31T09:10:55;100733.03;;;17.57;77.77
53262;BME280;39658;51.090;-1.786;2022-10-31T09:13:22;100743.34;;;17.94;75.37
53262;BME280;39658;51.090;-1.786;2022-10-31T09:15:49;100724.41;;;19.15;71.02
53262;BME280;39658;51.090;-1.786;2022-10-31T09:18:18;100726.06;;;19.16;68.63
53262;BME280;39658;51.090;-1.786;2022-10-31T09:20:46;100715.91;;;19.18;70.04
53262;BME280;39658;51.090;-1.786;2022-10-31T09:23:14;100708.13;;;19.67;67.71
53262;BME280;39658;51.090;-1.786;2022-10-31T09:25:42;100692.44;;;19.18;68.49
53262;BME280;39658;51.090;-1.786;2022-10-31T09:28:13;100703.31;;;20.39;64.94
53262;BME280;39658;51.090;-1.786;2022-10-31T09:30:40;100695.81;;;19.78;66.29
53262;BME280;39658;51.090;-1.786;2022-10-31T09:33:09;100705.34;;;19.03;69.19
53262;BME280;39658;51.090;-1.786;2022-10-31T09:35:37;100696.88;;;18.53;69.29
53262;BME280;39658;51.090;-1.786;2022-10-31T09:38:05;100698.66;;;17.17;76.10
53262;BME280;39658;51.090;-1.786;2022-10-31T09:40:35;100689.66;;;16.26;80.38
53262;BME280;39658;51.090;-1.786;2022-10-31T09:43:08;100692.06;;;15.79;83.17
53262;BME280;39658;51.090;-1.786;2022-10-31T09:45:45;100684.97;;;15.92;83.59
53262;BME280;39658;51.090;-1.786;2022-10-31T09:48:27;100680.69;;;16.83;80.52
53262;BME280;39658;51.090;-1.786;2022-10-31T09:50:58;100667.59;;;17.08;78.04
53262;BME280;39658;51.090;-1.786;2022-10-31T09:53:31;100660.91;;;16.98;77.62
53262;BME280;39658;51.090;-1.786;2022-10-31T09:56:01;100660.56;;;17.07;78.41
53262;BME280;39658;51.090;-1.786;2022-10-31T09:58:42;100660.19;;;17.17;78.53
53262;BME280;39658;51.090;-1.786;2022-10-31T10:01:22;100656.03;;;16.80;79.26
53262;BME280;39658;51.090;-1.786;2022-10-31T10:03:54;100652.03;;;16.69;80.57
53262;BME280;39658;51.090;-1.786;2022-10-31T10:06:27;100648.44;;;16.62;81.54
53262;BME280;39658;51.090;-1.786;2022-10-31T10:08:55;100638.38;;;16.99;79.00
53262;BME280;39658;51.090;-1.786;2022-10-31T10:11:40;100639.84;;;17.01;79.10
53262;BME280;39658;51.090;-1.786;2022-10-31T10:14:26;100641.88;;;16.92;77.93
53262;BME280;39658;51.090;-1.786;2022-10-31T10:17:19;100632.13;;;16.91;78.15
53262;BME280;39658;51.090;-1.786;2022-10-31T10:22:48;100622.81;;;17.90;74.15
53262;BME280;39658;51.090;-1.786;2022-10-31T10:25:20;100614.56;;;18.84;69.92
53262;BME280;39658;51.090;-1.786;2022-10-31T10:27:56;100619.31;;;18.82;69.28
53262;BME280;39658;51.090;-1.786;2022-10-31T10:30:30;100614.69;;;19.02;67.93
53262;BME280;39658;51.090;-1.786;2022-10-31T10:33:04;100618.66;;;18.93;69.43
53262;BME280;39658;51.090;-1.786;2022-10-31T10:35:33;100621.63;;;18.52;69.27
53262;BME280;39658;51.090;-1.786;2022-10-31T10:38:08;100617.09;;;17.51;73.01
53262;BME280;39658;51.090;-1.786;2022-10-31T10:40:37;100619.97;;;16.96;75.81
53262;BME280;39658;51.090;-1.786;2022-10-31T10:43:21;100618.78;;;17.11;76.20
53262;BME280;39658;51.090;-1.786;2022-10-31T10:46:04;100600.28;;;18.17;72.66
53262;BME280;39658;51.090;-1.786;2022-10-31T10:48:55;100604.22;;;18.14;72.04
53262;BME280;39658;51.090;-1.786;2022-10-31T10:51:29;100611.88;;;18.51;70.47
53262;BME280;39658;51.090;-1.786;2022-10-31T10:54:06;100598.59;;;18.56;67.07
53262;BME280;39658;51.090;-1.786;2022-10-31T10:56:47;100599.66;;;18.22;68.64
53262;BME280;39658;51.090;-1.786;2022-10-31T10:59:19;100594.66;;;17.99;70.84
53262;BME280;39658;51.090;-1.786;2022-10-31T11:01:48;100600.19;;;17.64;71.37
53262;BME280;39658;51.090;-1.786;2022-10-31T11:04:29;100592.81;;;18.26;69.25
53262;BME280;39658;51.090;-1.786;2022-10-31T11:07:04;100581.66;;;19.64;64.66
53262;BME280;39658;51.090;-1.786;2022-10-31T11:09:32;100585.34;;;18.54;67.00
53262;BME280;39658;51.090;-1.786;2022-10-31T11:11:59;100586.00;;;17.36;70.93
53262;BME280;39658;51.090;-1.786;2022-10-31T11:14:27;100587.59;;;17.17;72.93
53262;BME280;39658;51.090;-1.786;2022-10-31T11:16:56;100572.56;;;16.88;73.48
53262;BME280;39658;51.090;-1.786;2022-10-31T11:19:35;100569.38;;;18.00;68.93
53262;BME280;39658;51.090;-1.786;2022-10-31T11:22:06;100565.25;;;19.21;63.70
53262;BME280;39658;51.090;-1.786;2022-10-31T11:24:38;100566.56;;;20.81;59.08
53262;BME280;39658;51.090;-1.786;2022-10-31T11:27:14;100540.28;;;21.37;56.96
53262;BME280;39658;51.090;-1.786;2022-10-31T11:29:41;100519.13;;;20.79;57.51
53262;BME280;39658;51.090;-1.786;2022-10-31T11:32:17;100543.44;;;19.61;60.80
53262;BME280;39658;51.090;-1.786;2022-10-31T11:34:48;100531.09;;;19.02;63.13
53262;BME280;39658;51.090;-1.786;2022-10-31T11:37:19;100526.41;;;18.84;66.08
53262;BME280;39658;51.090;-1.786;2022-10-31T11:39:49;100519.66;;;18.22;68.75
53262;BME280;39658;51.090;-1.786;2022-10-31T11:42:20;100515.25;;;17.42;70.27
53262;BME280;39658;51.090;-1.786;2022-10-31T11:44:48;100502.09;;;17.73;69.60
53262;BME280;39658;51.090;-1.786;2022-10-31T11:47:17;100495.56;;;18.67;66.91
53262;BME280;39658;51.090;-1.786;2022-10-31T11:49:49;100493.72;;;19.05;64.03
53262;BME280;39658;51.090;-1.786;2022-10-31T11:52:20;100493.91;;;20.48;59.97
53262;BME280;39658;51.090;-1.786;2022-10-31T11:54:49;100489.19;;;19.37;62.70
53262;BME280;39658;51.090;-1.786;2022-10-31T11:57:24;100482.13;;;19.05;64.78
53262;BME280;39658;51.090;-1.786;2022-10-31T11:59:52;100480.78;;;19.21;64.61
53262;BME280;39658;51.090;-1.786;2022-10-31T12:02:20;100475.81;;;20.06;62.19
53262;BME280;39658;51.090;-1.786;2022-10-31T12:04:54;100477.38;;;20.56;59.14
53262;BME280;39658;51.090;-1.786;2022-10-31T12:07:23;100469.56;;;20.85;57.67
53262;BME280;39658;51.090;-1.786;2022-10-31T12:09:50;100451.88;;;21.12;56.58
53262;BME280;39658;51.090;-1.786;2022-10-31T12:12:34;100448.56;;;20.50;58.81
53262;BME280;39658;51.090;-1.786;2022-10-31T12:15:20;100440.31;;;20.75;57.44
53262;BME280;39658;51.090;-1.786;2022-10-31T12:17:56;100433.19;;;19.33;62.55
53262;BME280;39658;51.090;-1.786;2022-10-31T12:20:39;100424.00;;;19.90;60.19
53262;BME280;39658;51.090;-1.786;2022-10-31T12:23:14;100418.31;;;20.35;56.71
53262;BME280;39658;51.090;-1.786;2022-10-31T12:25:50;100403.06;;;21.49;53.57
53262;BME280;39658;51.090;-1.786;2022-10-31T12:28:41;100402.44;;;21.23;52.77
53262;BME280;39658;51.090;-1.786;2022-10-31T12:31:24;100396.13;;;20.51;53.90
53262;BME280;39658;51.090;-1.786;2022-10-31T12:34:02;100388.16;;;20.20;54.67
53262;BME280;39658;51.090;-1.786;2022-10-31T12:36:44;100380.66;;;19.60;57.83
53262;BME280;39658;51.090;-1.786;2022-10-31T12:39:24;100363.91;;;20.31;57.02
53262;BME280;39658;51.090;-1.786;2022-10-31T12:41:52;100371.88;;;20.26;55.44
53262;BME280;39658;51.090;-1.786;2022-10-31T12:44:58;100347.84;;;19.38;59.10
53262;BME280;39658;51.090;-1.786;2022-10-31T12:50:26;100335.16;;;18.51;62.68
53262;BME280;39658;51.090;-1.786;2022-10-31T12:53:02;100345.53;;;18.47;62.74
53262;BME280;39658;51.090;-1.786;2022-10-31T12:55:40;100320.09;;;17.59;66.44
53262;BME280;39658;51.090;-1.786;2022-10-31T12:58:13;100321.97;;;17.78;66.95